createdAt,value
2023-01-26T00:04:19.023Z,11.23
2023-01-26T00:09:21.312Z,10.27
2023-01-26T00:14:23.506Z,10.52
2023-01-26T00:19:25.751Z,10.65
2023-01-26T00:24:27.909Z,10.75
2023-01-26T00:29:30.146Z,10.77
2023-01-26T00:34:32.348Z,11.02
2023-01-26T00:39:34.582Z,10.65
2023-01-26T00:44:38.744Z,10.50
2023-01-26T00:49:40.998Z,11.32
2023-01-26T00:54:43.235Z,11.50
2023-01-26T00:59:45.468Z,11.00
2023-01-26T01:04:47.705Z,10.38
2023-01-26T01:09:49.934Z,10.63
2023-01-26T01:14:52.205Z,10.52
2023-01-26T01:19:54.429Z,12.35
2023-01-26T01:24:57.127Z,10.48
2023-01-26T01:29:59.389Z,10.77
2023-01-26T01:35:01.767Z,11.95
2023-01-26T01:40:04.441Z,11.70
2023-01-26T01:50:39.966Z,11.32
2023-01-26T01:55:42.772Z,11.77
2023-01-26T02:00:45.203Z,11.43
2023-01-26T02:11:09.708Z,11.43
2023-01-26T02:16:12.175Z,11.30
2023-01-26T02:21:17.534Z,10.70
2023-01-26T02:31:29.805Z,12.23
2023-01-26T02:36:34.252Z,11.82
2023-01-26T02:41:56.476Z,11.15
2023-01-26T02:46:59.023Z,10.90
2023-01-26T02:52:01.904Z,12.20
2023-01-26T02:57:04.198Z,10.63
2023-01-26T03:02:07.166Z,11.52
2023-01-26T03:07:09.604Z,12.23
2023-01-26T03:12:13.145Z,12.43
2023-01-26T03:17:15.417Z,12.48
2023-01-26T03:22:37.572Z,13.15
2023-01-26T03:27:44.824Z,16.90
2023-01-26T03:32:48.748Z,13.32
2023-01-26T03:37:54.961Z,13.13
2023-01-26T03:43:31.636Z,11.98
2023-01-26T03:48:54.013Z,11.35
2023-01-26T03:54:16.225Z,11.63
2023-01-26T03:59:38.110Z,16.58
2023-01-26T04:05:03.422Z,13.40
2023-01-26T04:10:10.331Z,14.52
2023-01-26T04:15:32.785Z,13.10
2023-01-26T04:20:56.491Z,14.13
2023-01-26T04:25:58.793Z,14.63
2023-01-26T04:31:04.698Z,14.10
2023-01-26T04:36:10.992Z,13.38
2023-01-26T04:41:18.444Z,14.05
2023-01-26T04:46:25.313Z,14.07
2023-01-26T04:51:28.416Z,13.10
2023-01-26T04:56:33.847Z,14.48
2023-01-26T05:01:36.802Z,15.23
2023-01-26T05:06:43.026Z,13.55
2023-01-26T05:11:45.994Z,13.60
2023-01-26T05:17:05.814Z,15.45
2023-01-26T05:22:22.914Z,16.10
2023-01-26T05:27:45.162Z,16.35
2023-01-26T05:32:47.545Z,28.35
2023-01-26T05:37:51.027Z,18.90
2023-01-26T05:42:54.594Z,18.48
2023-01-26T05:48:09.594Z,18.63
2023-01-26T05:53:12.046Z,20.45
2023-01-26T05:58:14.868Z,20.92
2023-01-26T06:03:17.181Z,18.73
2023-01-26T06:08:20.543Z,19.17
2023-01-26T06:13:35.318Z,20.35
2023-01-26T06:18:50.746Z,21.52
2023-01-26T06:23:53.812Z,21.65
2023-01-26T06:28:56.576Z,22.45
2023-01-26T06:34:01.427Z,21.55
2023-01-26T06:39:04.185Z,23.45
2023-01-26T06:44:06.521Z,25.05
2023-01-26T06:49:09.932Z,25.15
2023-01-26T06:54:14.059Z,25.08
2023-01-26T06:59:37.565Z,26.77
2023-01-26T07:04:59.771Z,26.38
2023-01-26T07:10:02.675Z,26.30
2023-01-26T07:15:05.231Z,24.65
2023-01-26T07:20:08.634Z,23.80
2023-01-26T07:25:11.215Z,23.70
2023-01-26T07:30:14.537Z,26.45
2023-01-26T07:35:17.090Z,23.52
2023-01-26T07:40:19.499Z,23.88
2023-01-26T07:45:21.838Z,23.02
2023-01-26T07:50:25.891Z,24.45
2023-01-26T07:55:28.207Z,27.67
2023-01-26T08:00:30.466Z,26.83
2023-01-26T08:05:33.526Z,25.65
2023-01-26T08:10:35.950Z,25.38
2023-01-26T08:15:38.983Z,24.80
2023-01-26T08:20:41.192Z,26.88
2023-01-26T08:25:43.406Z,27.92
2023-01-26T08:30:45.681Z,26.65
2023-01-26T08:35:48.020Z,30.02
2023-01-26T08:40:53.041Z,28.95
2023-01-26T08:45:55.438Z,33.15
2023-01-26T08:51:00.189Z,30.73
2023-01-26T08:56:04.056Z,30.50
2023-01-26T09:01:10.839Z,30.63
2023-01-26T09:06:14.804Z,32.13
2023-01-26T09:11:17.148Z,30.38
2023-01-26T09:16:20.764Z,31.20
2023-01-26T09:21:24.340Z,28.17
2023-01-26T09:26:27.085Z,27.90
2023-01-26T09:31:30.071Z,28.73
2023-01-26T09:36:33.469Z,28.65
2023-01-26T09:52:18.541Z,25.02
2023-01-26T09:57:29.705Z,22.20
2023-01-26T10:07:45.409Z,13.55
2023-01-26T10:12:51.551Z,12.77
2023-01-26T10:17:55.217Z,13.35
2023-01-26T10:23:04.729Z,12.18
2023-01-26T10:28:14.400Z,12.88
2023-01-26T10:33:24.872Z,13.85
2023-01-26T10:43:57.856Z,13.20
2023-01-26T11:04:42.248Z,14.15
2023-01-26T11:09:44.583Z,12.30
2023-01-26T11:15:06.454Z,14.20
2023-01-26T11:25:32.061Z,14.77
2023-01-26T11:51:33.253Z,12.95
2023-01-26T12:07:33.559Z,13.32
2023-01-26T12:12:50.691Z,13.48
2023-01-26T12:28:35.041Z,11.93
2023-01-26T12:33:38.561Z,12.77
2023-01-26T12:39:20.486Z,12.52
2023-01-26T12:49:51.444Z,12.30
2023-01-26T12:55:00.459Z,12.60
2023-01-26T13:00:16.427Z,12.43
2023-01-26T13:05:25.903Z,12.07
2023-01-26T13:10:29.633Z,11.98
2023-01-26T13:15:33.183Z,12.13
2023-01-26T13:31:34.386Z,11.35
2023-01-26T13:36:41.839Z,11.88
2023-01-26T13:41:47.705Z,13.60
2023-01-26T13:47:12.609Z,13.13
2023-01-26T13:57:31.742Z,12.40
2023-01-26T14:02:35.720Z,13.18
2023-01-26T14:07:43.207Z,12.75
2023-01-26T14:12:51.828Z,11.80
2023-01-26T14:18:05.370Z,11.70
2023-01-26T14:28:22.506Z,12.13
2023-01-26T14:33:25.314Z,11.50
2023-01-26T14:38:29.962Z,11.98
2023-01-26T14:43:32.241Z,12.10
2023-01-26T14:48:41.278Z,12.98
2023-01-26T14:53:50.325Z,12.63
2023-01-26T14:58:54.583Z,11.95
2023-01-26T15:04:01.303Z,11.80
2023-01-26T15:09:17.077Z,16.92
2023-01-26T15:14:48.341Z,11.90
2023-01-26T15:19:52.889Z,12.43
2023-01-26T15:30:19.754Z,10.70
2023-01-26T15:40:32.677Z,14.13
2023-01-26T15:45:36.471Z,12.88
2023-01-26T15:50:38.685Z,15.82
2023-01-26T15:55:41.807Z,12.98
2023-01-26T16:00:44.165Z,17.02
2023-01-26T16:05:48.230Z,21.77
2023-01-26T16:10:50.505Z,12.52
2023-01-26T16:15:54.071Z,12.80
2023-01-26T16:20:56.335Z,13.25
2023-01-26T16:25:58.564Z,16.02
2023-01-26T16:31:02.717Z,11.38
2023-01-26T16:36:05.264Z,18.60
2023-01-26T16:41:24.140Z,13.20
2023-01-26T16:46:28.328Z,27.02
2023-01-26T16:51:37.494Z,14.82
2023-01-26T16:56:39.643Z,12.80
2023-01-26T17:01:42.408Z,16.58
2023-01-26T17:06:44.583Z,14.20
2023-01-26T17:11:46.752Z,20.73
2023-01-26T17:16:49.112Z,13.43
2023-01-26T17:21:51.341Z,12.82
2023-01-26T17:26:53.836Z,12.05
2023-01-26T17:31:56.064Z,14.35
2023-01-26T17:37:00.108Z,14.93
2023-01-26T17:42:02.305Z,11.32
2023-01-26T17:47:04.581Z,16.17
2023-01-26T17:52:08.254Z,13.02
2023-01-26T17:57:10.459Z,18.90
2023-01-26T18:02:12.770Z,11.25
2023-01-26T18:07:14.994Z,10.68
2023-01-26T18:12:17.246Z,11.25
2023-01-26T18:17:19.432Z,12.00
2023-01-26T18:22:21.687Z,10.70
2023-01-26T18:27:23.965Z,10.88
2023-01-26T18:32:26.241Z,11.32
2023-01-26T18:37:28.711Z,12.13
2023-01-26T18:42:31.330Z,11.30
2023-01-26T18:47:33.611Z,13.60
2023-01-26T18:52:35.858Z,14.85
2023-01-26T18:57:38.164Z,13.60
2023-01-26T19:02:40.469Z,11.38
2023-01-26T19:07:42.799Z,12.48
2023-01-26T19:12:44.993Z,14.95
2023-01-26T19:17:47.300Z,13.02
2023-01-26T19:22:54.056Z,10.75
2023-01-26T19:27:56.355Z,16.05
2023-01-26T19:33:18.571Z,11.50
2023-01-26T19:38:21.997Z,13.38
2023-01-26T19:43:24.221Z,14.27
2023-01-26T19:48:27.755Z,12.77
2023-01-26T19:53:31.956Z,17.52
2023-01-26T19:58:34.886Z,12.73
2023-01-26T20:03:37.599Z,20.45
2023-01-26T20:08:39.789Z,15.27
2023-01-26T20:13:42.992Z,12.70
2023-01-26T20:18:45.692Z,10.73
2023-01-26T20:23:54.400Z,12.90
2023-01-26T20:28:58.568Z,11.45
2023-01-26T20:34:02.189Z,12.90
2023-01-26T20:39:05.189Z,11.55
2023-01-26T20:44:08.191Z,10.25
2023-01-26T20:49:13.257Z,12.50
2023-01-26T20:54:16.824Z,11.75
2023-01-26T20:59:19.304Z,10.60
2023-01-26T21:04:21.556Z,10.23
2023-01-26T21:09:24.119Z,11.05
2023-01-26T21:14:26.384Z,12.57
2023-01-26T21:19:28.730Z,13.18
2023-01-26T21:24:30.975Z,10.68
2023-01-26T21:29:33.225Z,10.75
2023-01-26T21:34:35.480Z,9.93
2023-01-26T21:39:37.684Z,10.82
2023-01-26T21:44:59.821Z,11.40
2023-01-26T21:50:02.173Z,10.55
2023-01-26T21:55:04.575Z,10.07
2023-01-26T22:00:07.335Z,10.38
2023-01-26T22:06:00.407Z,9.80
2023-01-26T22:11:03.270Z,10.55
2023-01-26T22:16:06.145Z,9.93
2023-01-26T22:21:08.532Z,9.77
2023-01-26T22:26:16.476Z,10.60
2023-01-26T22:31:20.283Z,10.98
2023-01-26T22:36:23.878Z,10.98
2023-01-26T22:41:28.694Z,11.80
2023-01-26T22:46:32.064Z,11.63
2023-01-26T22:51:37.454Z,10.75
2023-01-26T22:56:39.901Z,10.55
2023-01-26T23:01:42.908Z,10.52
2023-01-26T23:06:45.056Z,10.07
2023-01-26T23:11:47.251Z,10.75
2023-01-26T23:16:49.463Z,10.13
2023-01-26T23:21:51.829Z,10.60
2023-01-26T23:26:54.125Z,10.40
2023-01-26T23:31:56.380Z,10.55
2023-01-26T23:36:58.613Z,10.80
2023-01-26T23:42:00.800Z,10.52
2023-01-26T23:47:03.094Z,11.13
2023-01-26T23:52:05.334Z,10.60
2023-01-26T23:57:07.523Z,11.15
